Time;durP1;ratioP1;P1;durP2;ratioP2;P2;SDS_P1;SDS_P2;PMS_P1;PMS_P2;Temp;Humidity;BMP_temperature;BMP_pressure;BME280_temperature;BME280_humidity;BME280_pressure;Samples;Min_cycle;Max_cycle;Signal;HPM_P1;HPM_P2
2023/01/29 00:01:04;;;;;;;31.08;16.77;;;;;;;;;;6343436;22;20585;-62
2023/01/29 00:03:30;;;;;;;29.55;15.77;;;;;;;;;;6343568;22;20158;-62
2023/01/29 00:05:56;;;;;;;31.80;17.08;;;;;;;;;;6343473;22;20181;-62
2023/01/29 00:08:22;;;;;;;31.60;16.95;;;;;;;;;;6343562;22;20141;-61
2023/01/29 00:10:48;;;;;;;34.83;18.50;;;;;;;;;;6343509;22;20210;-62
2023/01/29 00:13:13;;;;;;;30.08;16.13;;;;;;;;;;6345413;22;20139;-62
2023/01/29 00:15:39;;;;;;;31.00;16.77;;;;;;;;;;6353137;22;20150;-60
2023/01/29 00:18:05;;;;;;;29.42;16.15;;;;;;;;;;6351648;22;20146;-62
2023/01/29 00:20:32;;;;;;;30.23;16.55;;;;;;;;;;6348654;22;20225;-61
2023/01/29 00:22:58;;;;;;;33.70;17.70;;;;;;;;;;6347107;22;20142;-61
2023/01/29 00:25:24;;;;;;;29.33;15.93;;;;;;;;;;6347003;22;20161;-60
2023/01/29 00:27:51;;;;;;;27.30;15.05;;;;;;;;;;6347812;22;20178;-62
2023/01/29 00:30:18;;;;;;;33.58;16.75;;;;;;;;;;6343271;22;20142;-61
2023/01/29 00:32:44;;;;;;;29.92;15.88;;;;;;;;;;6342918;22;20596;-62
2023/01/29 00:35:11;;;;;;;26.98;15.05;;;;;;;;;;6343205;22;20201;-61
2023/01/29 00:37:37;;;;;;;28.90;15.98;;;;;;;;;;6342809;22;20158;-62
2023/01/29 00:40:04;;;;;;;30.77;15.98;;;;;;;;;;6343062;22;20157;-61
2023/01/29 00:45:15;;;;;;;27.02;14.63;;;;;;;;;;6343046;22;20180;-62
2023/01/29 00:47:41;;;;;;;26.38;14.85;;;;;;;;;;6342878;22;20234;-62
2023/01/29 00:50:10;;;;;;;25.40;14.18;;;;;;;;;;6343097;22;20139;-61
2023/01/29 00:52:36;;;;;;;24.55;13.88;;;;;;;;;;6342755;22;20570;-61
2023/01/29 00:55:04;;;;;;;24.17;13.77;;;;;;;;;;6342875;22;20169;-62
2023/01/29 00:57:31;;;;;;;21.35;12.98;;;;;;;;;;6343318;22;20142;-61
2023/01/29 00:59:57;;;;;;;22.38;12.25;;;;;;;;;;6343031;22;20168;-60
2023/01/29 01:05:12;;;;;;;23.60;13.38;;;;;;;;;;6343028;22;20145;-60
2023/01/29 01:07:39;;;;;;;23.10;13.70;;;;;;;;;;6343545;22;20244;-60
2023/01/29 01:10:21;;;;;;;24.08;13.13;;;;;;;;;;6342500;22;20565;-62
2023/01/29 01:12:52;;;;;;;21.63;12.32;;;;;;;;;;6342863;22;20127;-62
2023/01/29 01:15:18;;;;;;;23.90;12.27;;;;;;;;;;6342373;22;20123;-61
2023/01/29 01:17:44;;;;;;;22.13;12.13;;;;;;;;;;6342799;22;20142;-61
2023/01/29 01:20:11;;;;;;;22.60;12.50;;;;;;;;;;6342707;22;20161;-61
2023/01/29 01:22:37;;;;;;;23.00;13.15;;;;;;;;;;6342615;22;20138;-61
2023/01/29 01:25:03;;;;;;;22.10;12.48;;;;;;;;;;6342732;22;20150;-61
2023/01/29 01:27:29;;;;;;;22.92;13.13;;;;;;;;;;6342712;22;20193;-60
2023/01/29 01:29:55;;;;;;;19.75;11.68;;;;;;;;;;6343278;22;20142;-60
2023/01/29 01:32:21;;;;;;;21.63;12.45;;;;;;;;;;6342838;22;20233;-61
2023/01/29 01:34:47;;;;;;;19.13;11.75;;;;;;;;;;6342734;22;20149;-63
2023/01/29 01:37:13;;;;;;;21.23;11.95;;;;;;;;;;6342132;22;20219;-62
2023/01/29 01:39:39;;;;;;;23.15;12.57;;;;;;;;;;6342184;22;20453;-61
2023/01/29 01:42:06;;;;;;;25.95;12.93;;;;;;;;;;6342659;22;20143;-62
2023/01/29 01:44:50;;;;;;;21.80;12.85;;;;;;;;;;6342520;22;20180;-62
2023/01/29 01:47:17;;;;;;;22.88;12.48;;;;;;;;;;6342511;22;20223;-62
2023/01/29 01:49:44;;;;;;;22.23;11.60;;;;;;;;;;6362527;22;20202;-62
2023/01/29 01:52:11;;;;;;;22.10;12.35;;;;;;;;;;6359828;22;20150;-62
2023/01/29 01:54:37;;;;;;;24.30;12.50;;;;;;;;;;6355670;22;20135;-61
2023/01/29 01:57:14;;;;;;;22.58;13.07;;;;;;;;;;6349926;22;20207;-62
2023/01/29 01:59:41;;;;;;;21.67;12.95;;;;;;;;;;6356091;22;20141;-62
2023/01/29 02:10:27;;;;;;;24.20;11.95;;;;;;;;;;6342117;22;20215;-61
2023/01/29 02:12:53;;;;;;;21.35;12.30;;;;;;;;;;6342112;22;20149;-62
2023/01/29 02:15:19;;;;;;;23.35;12.80;;;;;;;;;;6342137;22;20138;-62
2023/01/29 02:17:47;;;;;;;23.40;12.60;;;;;;;;;;6341787;22;20146;-62
2023/01/29 02:20:30;;;;;;;27.33;13.98;;;;;;;;;;6342341;22;20151;-62
2023/01/29 02:23:00;;;;;;;22.70;12.23;;;;;;;;;;6342447;22;20225;-62
2023/01/29 02:25:26;;;;;;;26.33;13.68;;;;;;;;;;6342262;22;20231;-61
2023/01/29 02:28:10;;;;;;;21.38;11.68;;;;;;;;;;6340512;22;20166;-62
2023/01/29 02:30:39;;;;;;;24.40;12.70;;;;;;;;;;6341625;22;20138;-61
2023/01/29 02:33:21;;;;;;;21.85;11.70;;;;;;;;;;6342351;22;20149;-62
2023/01/29 02:36:06;;;;;;;21.55;10.32;;;;;;;;;;6342099;22;20217;-61
2023/01/29 02:38:43;;;;;;;22.85;11.00;;;;;;;;;;6341732;22;20217;-61
2023/01/29 02:41:12;;;;;;;19.40;9.13;;;;;;;;;;6342219;22;20141;-62
2023/01/29 02:43:37;;;;;;;19.45;10.65;;;;;;;;;;6342087;22;20146;-62
2023/01/29 02:46:06;;;;;;;21.88;10.60;;;;;;;;;;6341937;22;20194;-62
2023/01/29 02:48:39;;;;;;;24.88;10.38;;;;;;;;;;6342078;22;20229;-61
2023/01/29 02:51:08;;;;;;;18.75;9.65;;;;;;;;;;6341716;22;20425;-62
2023/01/29 02:53:34;;;;;;;21.50;9.98;;;;;;;;;;6341949;22;20225;-62
2023/01/29 02:56:09;;;;;;;20.85;10.00;;;;;;;;;;6341392;22;20170;-61
2023/01/29 02:58:43;;;;;;;19.45;9.52;;;;;;;;;;6342196;22;20560;-61
2023/01/29 03:01:17;;;;;;;16.27;8.75;;;;;;;;;;6341869;22;20142;-61
2023/01/29 03:03:47;;;;;;;19.30;9.48;;;;;;;;;;6341954;22;20141;-62
2023/01/29 03:06:32;;;;;;;22.27;9.80;;;;;;;;;;6342553;22;20162;-62
2023/01/29 03:09:00;;;;;;;18.65;9.73;;;;;;;;;;6341901;22;20180;-61
2023/01/29 03:11:29;;;;;;;17.58;9.75;;;;;;;;;;6341299;22;20572;-61
2023/01/29 03:13:58;;;;;;;18.30;9.88;;;;;;;;;;6341439;22;20149;-61
2023/01/29 03:16:37;;;;;;;19.02;9.95;;;;;;;;;;6341469;22;20146;-62
2023/01/29 03:19:16;;;;;;;19.95;9.57;;;;;;;;;;6341869;22;20167;-62
2023/01/29 03:22:05;;;;;;;17.02;8.05;;;;;;;;;;6341654;22;20142;-61
2023/01/29 03:33:02;;;;;;;18.35;9.25;;;;;;;;;;6341369;22;20138;-61
2023/01/29 03:35:35;;;;;;;17.90;8.93;;;;;;;;;;6341960;22;20213;-61
2023/01/29 03:38:08;;;;;;;16.55;9.15;;;;;;;;;;6341641;22;20173;-61
2023/01/29 03:40:40;;;;;;;14.07;7.90;;;;;;;;;;6341333;22;20553;-61
2023/01/29 03:43:13;;;;;;;13.65;7.95;;;;;;;;;;6341641;22;20130;-61
2023/01/29 03:45:46;;;;;;;17.30;7.22;;;;;;;;;;6341417;22;20146;-61
2023/01/29 03:48:12;;;;;;;15.52;7.28;;;;;;;;;;6342558;22;20450;-60
2023/01/29 03:50:43;;;;;;;13.02;6.93;;;;;;;;;;6343774;22;20150;-60
2023/01/29 03:53:32;;;;;;;13.63;7.20;;;;;;;;;;6343649;22;20130;-62
2023/01/29 03:56:12;;;;;;;13.10;6.97;;;;;;;;;;6327069;22;20184;-60
2023/01/29 03:58:41;;;;;;;11.93;6.70;;;;;;;;;;6342616;22;20123;-62
2023/01/29 04:01:19;;;;;;;11.88;6.78;;;;;;;;;;6342443;22;20199;-61
2023/01/29 04:03:45;;;;;;;10.82;6.28;;;;;;;;;;6342684;22;20217;-62
2023/01/29 04:06:16;;;;;;;13.70;6.72;;;;;;;;;;6341190;22;20553;-61
2023/01/29 04:08:52;;;;;;;12.43;6.82;;;;;;;;;;6341605;22;20223;-61
2023/01/29 04:11:19;;;;;;;13.07;7.38;;;;;;;;;;6341088;22;20451;-62
2023/01/29 04:13:46;;;;;;;11.13;7.05;;;;;;;;;;6341172;22;20153;-61
2023/01/29 04:16:23;;;;;;;13.57;7.13;;;;;;;;;;6341424;22;20230;-60
2023/01/29 04:18:49;;;;;;;13.35;7.22;;;;;;;;;;6340841;22;20130;-62
2023/01/29 04:21:15;;;;;;;12.90;7.32;;;;;;;;;;6341403;22;20181;-62
2023/01/29 04:23:41;;;;;;;11.02;7.07;;;;;;;;;;6340949;22;20138;-62
2023/01/29 04:26:17;;;;;;;11.63;6.75;;;;;;;;;;6341248;22;20149;-62
2023/01/29 04:28:43;;;;;;;18.35;8.50;;;;;;;;;;6340828;22;20550;-62
2023/01/29 04:31:11;;;;;;;11.02;7.13;;;;;;;;;;6341110;22;20148;-62
2023/01/29 04:33:44;;;;;;;14.50;7.25;;;;;;;;;;6341303;22;20138;-62
2023/01/29 04:36:25;;;;;;;12.38;7.80;;;;;;;;;;6340804;22;20644;-62
2023/01/29 04:39:03;;;;;;;14.75;8.52;;;;;;;;;;6340867;22;20195;-62
2023/01/29 04:41:35;;;;;;;12.60;7.70;;;;;;;;;;6342371;22;20133;-62
2023/01/29 04:44:03;;;;;;;12.35;7.00;;;;;;;;;;6342654;22;20228;-62
2023/01/29 04:46:50;;;;;;;14.02;7.68;;;;;;;;;;6342974;22;20170;-62
2023/01/29 04:49:22;;;;;;;15.15;8.30;;;;;;;;;;6342860;22;20166;-61
2023/01/29 04:52:07;;;;;;;15.55;8.30;;;;;;;;;;6343222;22;20242;-62
2023/01/29 04:54:36;;;;;;;15.52;8.30;;;;;;;;;;6342975;22;20503;-61
2023/01/29 04:57:02;;;;;;;13.82;8.30;;;;;;;;;;6342862;22;20153;-62
2023/01/29 04:59:42;;;;;;;16.63;8.65;;;;;;;;;;6342955;22;20146;-61
2023/01/29 05:02:10;;;;;;;14.35;8.27;;;;;;;;;;6342657;22;20142;-60
2023/01/29 05:04:37;;;;;;;15.25;8.63;;;;;;;;;;6342790;22;20146;-62
2023/01/29 05:07:05;;;;;;;15.15;8.40;;;;;;;;;;6342470;22;20573;-61
2023/01/29 05:09:31;;;;;;;16.33;8.55;;;;;;;;;;6342640;22;20560;-62
2023/01/29 05:11:57;;;;;;;17.45;8.93;;;;;;;;;;6343057;22;20178;-61
2023/01/29 05:14:24;;;;;;;13.43;7.65;;;;;;;;;;6342944;22;20153;-61
2023/01/29 05:16:52;;;;;;;15.20;8.30;;;;;;;;;;6342991;22;20146;-61
2023/01/29 05:19:18;;;;;;;16.17;9.05;;;;;;;;;;6342929;22;20157;-61
2023/01/29 05:21:46;;;;;;;19.55;7.95;;;;;;;;;;6342256;22;20229;-59
2023/01/29 05:24:14;;;;;;;14.57;8.05;;;;;;;;;;6342579;22;20146;-60
2023/01/29 05:29:27;;;;;;;15.38;7.75;;;;;;;;;;6342521;22;20218;-62
2023/01/29 05:31:53;;;;;;;16.05;8.07;;;;;;;;;;6342710;22;20135;-60
2023/01/29 05:34:19;;;;;;;17.75;8.02;;;;;;;;;;6342252;22;20231;-62
2023/01/29 05:36:45;;;;;;;12.82;7.70;;;;;;;;;;6342211;22;20174;-62
2023/01/29 05:39:11;;;;;;;13.23;7.32;;;;;;;;;;6342077;22;20146;-62
2023/01/29 05:41:37;;;;;;;18.92;8.18;;;;;;;;;;6342233;22;20138;-60
2023/01/29 05:44:02;;;;;;;17.38;8.30;;;;;;;;;;6342444;22;20207;-61
2023/01/29 05:46:28;;;;;;;16.30;8.55;;;;;;;;;;6342331;22;20174;-62
2023/01/29 05:48:54;;;;;;;14.75;9.13;;;;;;;;;;6341864;22;20292;-61
2023/01/29 05:51:20;;;;;;;14.50;8.13;;;;;;;;;;6342243;22;20138;-61
2023/01/29 05:53:46;;;;;;;14.75;8.27;;;;;;;;;;6342398;22;20143;-61
2023/01/29 05:56:12;;;;;;;16.98;8.57;;;;;;;;;;6358663;22;20142;-62
2023/01/29 05:58:39;;;;;;;13.43;7.88;;;;;;;;;;6362533;22;20168;-62
2023/01/29 06:01:13;;;;;;;14.23;8.25;;;;;;;;;;6363239;22;20146;-62
2023/01/29 06:03:39;;;;;;;18.15;9.48;;;;;;;;;;6355287;22;20135;-62
2023/01/29 06:06:05;;;;;;;14.23;8.20;;;;;;;;;;6355327;22;20159;-62
2023/01/29 06:08:31;;;;;;;14.13;8.02;;;;;;;;;;6349564;22;20150;-61
2023/01/29 06:10:57;;;;;;;13.88;8.23;;;;;;;;;;6345364;22;20149;-61
2023/01/29 06:13:23;;;;;;;12.57;7.72;;;;;;;;;;6343444;22;20213;-60
2023/01/29 06:15:48;;;;;;;13.23;8.50;;;;;;;;;;6342695;22;20537;-60
2023/01/29 06:18:14;;;;;;;11.73;7.85;;;;;;;;;;6342307;22;20138;-62
2023/01/29 06:20:40;;;;;;;13.80;8.73;;;;;;;;;;6342254;22;20151;-63
2023/01/29 06:23:06;;;;;;;13.82;8.02;;;;;;;;;;6342231;22;20262;-60
2023/01/29 06:25:32;;;;;;;17.58;8.93;;;;;;;;;;6342325;22;20203;-62
2023/01/29 06:27:58;;;;;;;14.27;8.38;;;;;;;;;;6341602;22;20209;-61
2023/01/29 06:30:24;;;;;;;13.32;7.82;;;;;;;;;;6341701;22;20142;-62
2023/01/29 06:32:50;;;;;;;15.23;8.02;;;;;;;;;;6341907;22;20341;-59
2023/01/29 06:35:16;;;;;;;13.50;7.75;;;;;;;;;;6342199;22;20135;-62
2023/01/29 06:37:43;;;;;;;11.75;7.45;;;;;;;;;;6341615;22;20245;-60
2023/01/29 06:40:10;;;;;;;11.60;7.60;;;;;;;;;;6342201;22;20221;-61
2023/01/29 06:42:36;;;;;;;12.65;8.30;;;;;;;;;;6342262;22;20157;-62
2023/01/29 06:45:04;;;;;;;11.38;7.45;;;;;;;;;;6341640;22;20150;-61
2023/01/29 06:47:30;;;;;;;15.10;8.15;;;;;;;;;;6342003;22;20217;-61
2023/01/29 06:49:55;;;;;;;15.82;9.02;;;;;;;;;;6344585;22;20135;-62
2023/01/29 06:52:21;;;;;;;13.23;7.95;;;;;;;;;;6347050;22;20496;-61
2023/01/29 06:54:47;;;;;;;15.05;8.13;;;;;;;;;;6347675;22;20142;-62
2023/01/29 06:57:13;;;;;;;16.75;7.50;;;;;;;;;;6345830;22;20149;-61
2023/01/29 06:59:39;;;;;;;10.35;7.40;;;;;;;;;;6345787;22;20142;-61
2023/01/29 07:02:05;;;;;;;12.95;8.02;;;;;;;;;;6343667;22;20146;-61
2023/01/29 07:04:31;;;;;;;12.88;7.43;;;;;;;;;;6344069;22;20161;-62
2023/01/29 07:06:58;;;;;;;11.40;7.25;;;;;;;;;;6344537;22;20176;-62
2023/01/29 07:09:24;;;;;;;12.90;7.43;;;;;;;;;;6344356;22;20146;-62
2023/01/29 07:11:50;;;;;;;15.95;8.65;;;;;;;;;;6345527;22;20150;-61
2023/01/29 07:14:16;;;;;;;11.25;7.07;;;;;;;;;;6345647;22;20138;-61
2023/01/29 07:16:42;;;;;;;13.13;7.93;;;;;;;;;;6344818;22;20579;-60
2023/01/29 07:19:08;;;;;;;11.85;7.10;;;;;;;;;;6343904;22;20228;-59
2023/01/29 07:21:34;;;;;;;12.45;7.47;;;;;;;;;;6344106;22;20142;-61
2023/01/29 07:24:00;;;;;;;11.02;7.47;;;;;;;;;;6342917;22;20351;-61
2023/01/29 07:26:26;;;;;;;11.60;7.65;;;;;;;;;;6343128;22;20178;-60
2023/01/29 07:28:52;;;;;;;12.50;7.32;;;;;;;;;;6342469;22;20148;-62
2023/01/29 07:31:18;;;;;;;13.40;7.70;;;;;;;;;;6341377;22;20217;-62
2023/01/29 07:33:44;;;;;;;12.00;7.88;;;;;;;;;;6342689;22;20150;-62
2023/01/29 07:36:11;;;;;;;10.68;7.25;;;;;;;;;;6341476;22;20182;-62
2023/01/29 07:38:37;;;;;;;12.70;8.00;;;;;;;;;;6341471;22;20114;-62
2023/01/29 07:41:03;;;;;;;14.15;7.95;;;;;;;;;;6341093;22;20146;-61
2023/01/29 07:43:29;;;;;;;15.50;7.85;;;;;;;;;;6341301;22;20145;-63
2023/01/29 07:45:55;;;;;;;11.80;7.47;;;;;;;;;;6341099;22;20177;-62
2023/01/29 07:48:21;;;;;;;15.27;7.50;;;;;;;;;;6341197;22;20184;-62
2023/01/29 07:50:54;;;;;;;12.43;8.07;;;;;;;;;;6341209;22;20216;-62
2023/01/29 07:53:20;;;;;;;12.75;7.95;;;;;;;;;;6341899;22;20126;-62
2023/01/29 07:55:46;;;;;;;13.13;8.02;;;;;;;;;;6341535;22;20169;-62
2023/01/29 07:58:12;;;;;;;16.23;7.63;;;;;;;;;;6341422;22;20142;-62
2023/01/29 08:00:38;;;;;;;12.95;7.82;;;;;;;;;;6341445;22;20142;-60
2023/01/29 08:03:05;;;;;;;18.38;8.95;;;;;;;;;;6341497;22;20143;-62
2023/01/29 08:05:31;;;;;;;15.05;8.90;;;;;;;;;;6340975;22;20634;-62
2023/01/29 08:07:57;;;;;;;15.60;9.13;;;;;;;;;;6341276;22;20173;-62
2023/01/29 08:10:23;;;;;;;17.23;9.13;;;;;;;;;;6342848;22;20142;-62
2023/01/29 08:12:56;;;;;;;15.95;8.60;;;;;;;;;;6342707;22;20541;-61
2023/01/29 08:15:22;;;;;;;13.38;8.15;;;;;;;;;;6343051;22;20142;-61
2023/01/29 08:17:48;;;;;;;12.00;7.63;;;;;;;;;;6346061;22;20146;-61
2023/01/29 08:20:14;;;;;;;12.70;8.43;;;;;;;;;;6345915;22;20421;-62
2023/01/29 08:22:40;;;;;;;13.55;8.02;;;;;;;;;;6369408;22;20215;-61
2023/01/29 08:25:06;;;;;;;13.18;8.07;;;;;;;;;;6344566;22;20150;-61
2023/01/29 08:27:32;;;;;;;11.15;7.00;;;;;;;;;;6344330;22;20584;-61
2023/01/29 08:29:58;;;;;;;11.32;7.22;;;;;;;;;;6344638;22;20152;-61
2023/01/29 08:32:24;;;;;;;11.15;7.15;;;;;;;;;;6343930;22;20146;-61
2023/01/29 08:34:50;;;;;;;12.70;7.60;;;;;;;;;;6343789;22;20399;-62
2023/01/29 08:37:16;;;;;;;9.93;7.05;;;;;;;;;;6343404;22;20157;-61
2023/01/29 08:39:42;;;;;;;10.23;6.45;;;;;;;;;;6342828;22;20561;-61
2023/01/29 08:42:08;;;;;;;9.18;5.82;;;;;;;;;;6343523;22;20637;-62
2023/01/29 08:44:34;;;;;;;8.45;6.28;;;;;;;;;;6343205;22;20413;-60
2023/01/29 08:47:01;;;;;;;9.02;6.43;;;;;;;;;;6343328;22;20247;-61
2023/01/29 08:49:27;;;;;;;8.80;6.13;;;;;;;;;;6343104;22;20146;-62
2023/01/29 08:51:55;;;;;;;8.10;6.03;;;;;;;;;;6343169;22;20173;-61
2023/01/29 08:54:21;;;;;;;8.82;5.63;;;;;;;;;;6342845;22;20142;-61
2023/01/29 08:56:47;;;;;;;9.25;6.10;;;;;;;;;;6342894;22;20146;-62
2023/01/29 08:59:13;;;;;;;9.18;6.15;;;;;;;;;;6343321;22;20177;-61
2023/01/29 09:01:39;;;;;;;8.25;5.68;;;;;;;;;;6343012;22;20557;-62
2023/01/29 09:04:06;;;;;;;9.13;5.32;;;;;;;;;;6342897;22;20484;-62
2023/01/29 09:06:31;;;;;;;8.00;5.13;;;;;;;;;;6342997;22;20192;-60
2023/01/29 09:08:57;;;;;;;10.27;5.32;;;;;;;;;;6342895;22;20545;-61
2023/01/29 09:11:23;;;;;;;7.93;5.45;;;;;;;;;;6342873;22;20424;-62
2023/01/29 09:13:49;;;;;;;7.07;4.88;;;;;;;;;;6343178;22;20142;-62
2023/01/29 09:16:15;;;;;;;8.50;5.47;;;;;;;;;;6342409;22;20158;-61
2023/01/29 09:18:41;;;;;;;7.53;4.53;;;;;;;;;;6342745;22;20178;-61
2023/01/29 09:21:08;;;;;;;8.35;5.82;;;;;;;;;;6342624;22;20494;-60
2023/01/29 09:23:34;;;;;;;7.90;5.03;;;;;;;;;;6342369;22;20173;-61
2023/01/29 09:26:01;;;;;;;7.65;4.72;;;;;;;;;;6342431;22;20139;-60
2023/01/29 09:28:27;;;;;;;8.30;5.10;;;;;;;;;;6342381;22;20458;-61
2023/01/29 09:30:53;;;;;;;6.78;4.47;;;;;;;;;;6342870;22;20220;-62
2023/01/29 09:33:19;;;;;;;7.97;4.85;;;;;;;;;;6342966;22;20565;-59
2023/01/29 09:35:46;;;;;;;7.68;4.88;;;;;;;;;;6342571;22;20461;-62
2023/01/29 09:38:12;;;;;;;7.22;4.15;;;;;;;;;;6342585;22;20146;-60
2023/01/29 09:40:43;;;;;;;6.57;4.07;;;;;;;;;;6342367;22;20161;-61
2023/01/29 09:43:09;;;;;;;7.10;3.97;;;;;;;;;;6342074;22;20556;-60
2023/01/29 09:45:35;;;;;;;7.40;3.83;;;;;;;;;;6342421;22;20162;-62
2023/01/29 09:48:02;;;;;;;4.80;3.17;;;;;;;;;;6342591;22;20327;-60
2023/01/29 09:50:28;;;;;;;5.25;3.55;;;;;;;;;;6342094;22;20154;-62
2023/01/29 09:52:58;;;;;;;6.47;3.30;;;;;;;;;;6342411;22;20142;-62
2023/01/29 09:55:37;;;;;;;5.30;3.42;;;;;;;;;;6341940;22;20134;-62
2023/01/29 09:58:21;;;;;;;5.25;3.63;;;;;;;;;;6342432;22;20146;-62
2023/01/29 10:01:03;;;;;;;5.60;3.63;;;;;;;;;;6342218;22;20203;-62
2023/01/29 10:03:37;;;;;;;5.55;3.28;;;;;;;;;;6342080;22;20542;-62
2023/01/29 10:06:22;;;;;;;5.10;3.45;;;;;;;;;;6342027;22;20161;-62
2023/01/29 10:09:03;;;;;;;5.55;3.83;;;;;;;;;;6342729;22;20215;-63
2023/01/29 10:11:49;;;;;;;6.22;4.30;;;;;;;;;;6343557;22;20131;-63
2023/01/29 10:14:18;;;;;;;5.47;3.83;;;;;;;;;;6293858;22;20142;-62
2023/01/29 10:16:44;;;;;;;8.75;4.65;;;;;;;;;;6351210;22;20146;-61
2023/01/29 10:19:49;;;;;;;7.35;4.47;;;;;;;;;;6345314;22;20185;-62
2023/01/29 10:22:32;;;;;;;6.10;3.88;;;;;;;;;;6220519;23;20160;-62
2023/01/29 10:25:16;;;;;;;9.07;4.55;;;;;;;;;;6221771;23;20192;-61
2023/01/29 10:27:46;;;;;;;7.05;4.82;;;;;;;;;;6221942;23;20172;-62
2023/01/29 10:30:25;;;;;;;7.03;4.30;;;;;;;;;;6218642;23;20164;-62
2023/01/29 10:32:51;;;;;;;7.45;4.80;;;;;;;;;;6217570;23;20141;-61
2023/01/29 10:35:22;;;;;;;8.23;4.43;;;;;;;;;;6217377;23;20172;-61
2023/01/29 10:37:51;;;;;;;6.60;4.63;;;;;;;;;;6216993;23;20161;-60
2023/01/29 10:40:26;;;;;;;8.30;5.30;;;;;;;;;;6216716;23;20170;-60
2023/01/29 10:42:52;;;;;;;7.50;4.63;;;;;;;;;;6216667;23;20466;-61
2023/01/29 10:45:36;;;;;;;8.02;4.82;;;;;;;;;;6216884;23;20219;-61
2023/01/29 10:48:09;;;;;;;8.52;5.25;;;;;;;;;;6216417;23;20206;-60
2023/01/29 10:50:53;;;;;;;7.22;4.88;;;;;;;;;;6216856;23;20134;-59
2023/01/29 10:53:26;;;;;;;6.53;4.57;;;;;;;;;;6298357;22;20142;-61
2023/01/29 10:55:55;;;;;;;8.77;5.72;;;;;;;;;;6342056;22;20126;-62
2023/01/29 10:58:27;;;;;;;7.93;5.28;;;;;;;;;;6341602;22;20588;-62
2023/01/29 11:00:53;;;;;;;9.73;6.03;;;;;;;;;;6341635;22;20536;-63
2023/01/29 11:03:26;;;;;;;8.30;5.07;;;;;;;;;;6341844;22;20221;-59
2023/01/29 11:05:59;;;;;;;7.97;5.65;;;;;;;;;;6341851;22;20146;-62
2023/01/29 11:08:28;;;;;;;9.05;5.93;;;;;;;;;;6345753;22;20173;-60
2023/01/29 11:10:56;;;;;;;8.15;5.55;;;;;;;;;;6358414;22;20278;-62
2023/01/29 11:13:26;;;;;;;9.13;5.72;;;;;;;;;;6357022;22;20141;-61
2023/01/29 11:15:52;;;;;;;8.90;5.68;;;;;;;;;;6342709;22;20134;-61
2023/01/29 11:18:18;;;;;;;9.13;6.30;;;;;;;;;;6342040;22;20564;-61
2023/01/29 11:20:46;;;;;;;10.77;6.78;;;;;;;;;;6342202;22;20151;-62
2023/01/29 11:23:29;;;;;;;9.13;6.40;;;;;;;;;;6341940;22;20203;-61
2023/01/29 11:25:56;;;;;;;11.35;6.90;;;;;;;;;;6342198;22;20145;-62
2023/01/29 11:28:35;;;;;;;11.02;6.60;;;;;;;;;;6341818;22;20270;-62
2023/01/29 11:31:01;;;;;;;9.00;6.15;;;;;;;;;;6341844;22;20142;-62
2023/01/29 11:33:28;;;;;;;8.73;6.40;;;;;;;;;;6341454;22;20150;-61
2023/01/29 11:35:56;;;;;;;11.18;6.97;;;;;;;;;;6341309;22;20139;-62
2023/01/29 11:38:23;;;;;;;11.50;7.65;;;;;;;;;;6341512;22;20610;-62
2023/01/29 11:40:49;;;;;;;11.32;7.38;;;;;;;;;;6341311;22;20584;-61
2023/01/29 11:43:28;;;;;;;8.07;6.03;;;;;;;;;;6341260;22;20139;-63
2023/01/29 11:45:55;;;;;;;12.73;7.05;;;;;;;;;;6341710;22;20143;-63
2023/01/29 11:48:23;;;;;;;10.40;7.07;;;;;;;;;;6341605;22;20169;-64
2023/01/29 11:51:01;;;;;;;10.73;7.25;;;;;;;;;;6341476;22;20146;-63
2023/01/29 11:53:35;;;;;;;10.07;6.93;;;;;;;;;;6341689;22;20217;-61
2023/01/29 11:56:03;;;;;;;12.07;6.95;;;;;;;;;;6341817;22;20180;-62
2023/01/29 11:58:30;;;;;;;12.25;7.22;;;;;;;;;;6341494;22;20150;-63
2023/01/29 12:00:57;;;;;;;10.30;6.85;;;;;;;;;;6341294;22;20153;-63
2023/01/29 12:03:42;;;;;;;10.45;7.15;;;;;;;;;;6341472;22;20554;-63
2023/01/29 12:06:08;;;;;;;8.45;5.70;;;;;;;;;;6341839;22;20150;-61
2023/01/29 12:08:38;;;;;;;10.65;7.30;;;;;;;;;;6341236;22;20579;-63
2023/01/29 12:11:09;;;;;;;12.40;7.75;;;;;;;;;;6341638;22;20146;-62
2023/01/29 12:13:35;;;;;;;12.15;7.80;;;;;;;;;;6341549;22;20142;-61
2023/01/29 12:16:15;;;;;;;13.05;8.18;;;;;;;;;;6341891;22;20262;-61
2023/01/29 12:18:43;;;;;;;13.65;7.60;;;;;;;;;;6341785;22;20145;-59
2023/01/29 12:21:15;;;;;;;12.85;8.43;;;;;;;;;;6341943;22;20221;-61
2023/01/29 12:23:41;;;;;;;14.40;9.05;;;;;;;;;;6341690;22;20151;-63
2023/01/29 12:26:14;;;;;;;11.48;8.32;;;;;;;;;;6341482;22;20178;-62
2023/01/29 12:28:40;;;;;;;15.00;9.43;;;;;;;;;;6341537;22;20161;-63
2023/01/29 12:31:12;;;;;;;13.77;8.82;;;;;;;;;;6341887;22;20143;-62
2023/01/29 12:33:43;;;;;;;15.65;10.18;;;;;;;;;;6341702;22;20196;-62
2023/01/29 12:36:22;;;;;;;14.98;9.23;;;;;;;;;;6341477;22;20165;-61
2023/01/29 12:38:48;;;;;;;17.73;10.82;;;;;;;;;;6341370;22;20139;-62
2023/01/29 12:41:20;;;;;;;18.52;10.68;;;;;;;;;;6341020;22;20170;-62
2023/01/29 12:43:49;;;;;;;15.27;10.02;;;;;;;;;;6341469;22;20207;-61
2023/01/29 12:46:24;;;;;;;16.98;11.05;;;;;;;;;;6341360;22;20172;-63
2023/01/29 12:48:52;;;;;;;15.43;9.85;;;;;;;;;;6340774;22;20191;-63
2023/01/29 12:51:23;;;;;;;16.20;10.45;;;;;;;;;;6341370;22;20142;-62
2023/01/29 12:53:53;;;;;;;19.38;11.30;;;;;;;;;;6341193;22;20221;-61
2023/01/29 12:56:33;;;;;;;17.50;10.65;;;;;;;;;;6341646;22;20495;-61
2023/01/29 12:59:06;;;;;;;16.52;9.38;;;;;;;;;;6341088;22;20187;-63
2023/01/29 13:01:42;;;;;;;15.13;9.93;;;;;;;;;;6341611;22;20139;-63
2023/01/29 13:04:16;;;;;;;17.13;11.15;;;;;;;;;;6342674;22;20138;-62
2023/01/29 13:06:44;;;;;;;18.38;10.80;;;;;;;;;;6343276;22;20193;-63
2023/01/29 13:09:13;;;;;;;16.80;10.32;;;;;;;;;;6341686;22;20550;-61
2023/01/29 13:11:42;;;;;;;17.85;10.70;;;;;;;;;;6342746;22;20142;-63
2023/01/29 13:14:21;;;;;;;18.55;11.07;;;;;;;;;;6343123;22;20213;-63
2023/01/29 13:16:50;;;;;;;18.90;11.73;;;;;;;;;;6341383;22;20169;-59
2023/01/29 13:19:23;;;;;;;18.75;11.27;;;;;;;;;;6342730;22;20232;-62
2023/01/29 13:21:50;;;;;;;19.15;11.30;;;;;;;;;;6342860;22;20191;-62
2023/01/29 13:24:22;;;;;;;20.15;11.82;;;;;;;;;;6343000;22;20142;-62
2023/01/29 13:26:48;;;;;;;18.70;11.43;;;;;;;;;;6342798;22;20256;-62
2023/01/29 13:29:22;;;;;;;20.75;11.82;;;;;;;;;;6342284;22;20441;-62
2023/01/29 13:31:49;;;;;;;18.55;11.82;;;;;;;;;;6342662;22;20153;-61
2023/01/29 13:34:27;;;;;;;19.95;11.95;;;;;;;;;;6342218;22;20142;-62
2023/01/29 13:36:58;;;;;;;16.65;10.95;;;;;;;;;;6342367;22;20161;-61
2023/01/29 13:39:36;;;;;;;19.25;11.85;;;;;;;;;;6342804;22;20142;-62
2023/01/29 13:42:03;;;;;;;18.60;10.93;;;;;;;;;;6342328;22;20553;-62
2023/01/29 13:44:32;;;;;;;20.40;12.00;;;;;;;;;;6341763;22;20500;-62
2023/01/29 13:47:00;;;;;;;18.88;11.90;;;;;;;;;;6342549;22;20162;-62
2023/01/29 13:49:38;;;;;;;18.55;11.90;;;;;;;;;;6342374;22;20153;-62
2023/01/29 13:52:22;;;;;;;18.52;11.60;;;;;;;;;;6343312;22;20427;-62
2023/01/29 13:54:56;;;;;;;18.95;11.15;;;;;;;;;;6342675;22;20142;-61
2023/01/29 13:57:35;;;;;;;18.42;11.13;;;;;;;;;;6345382;22;20146;-62
2023/01/29 14:00:01;;;;;;;18.15;11.38;;;;;;;;;;6358799;22;20211;-61
2023/01/29 14:02:28;;;;;;;15.85;10.38;;;;;;;;;;6361621;22;20165;-59
2023/01/29 14:05:13;;;;;;;17.83;11.45;;;;;;;;;;6344603;22;20295;-63
2023/01/29 14:07:44;;;;;;;17.10;10.68;;;;;;;;;;6341875;22;20659;-62
2023/01/29 14:10:22;;;;;;;16.50;10.75;;;;;;;;;;6342072;22;20150;-63
2023/01/29 14:12:52;;;;;;;17.08;10.77;;;;;;;;;;6342396;22;20142;-63
2023/01/29 14:15:23;;;;;;;16.95;11.07;;;;;;;;;;6341973;22;20230;-63
2023/01/29 14:17:58;;;;;;;17.17;10.40;;;;;;;;;;6340970;22;20154;-63
2023/01/29 14:20:30;;;;;;;17.02;10.15;;;;;;;;;;6341989;22;20145;-63
2023/01/29 14:22:58;;;;;;;15.00;9.55;;;;;;;;;;6342122;22;20138;-61
2023/01/29 14:25:28;;;;;;;15.82;11.05;;;;;;;;;;6342378;22;20146;-63
2023/01/29 14:27:54;;;;;;;16.48;10.80;;;;;;;;;;6342275;22;20197;-63
2023/01/29 14:30:22;;;;;;;20.20;10.80;;;;;;;;;;6342315;22;20153;-62
2023/01/29 14:32:50;;;;;;;17.35;11.20;;;;;;;;;;6342402;22;20273;-62
2023/01/29 14:35:26;;;;;;;18.42;11.23;;;;;;;;;;6353971;22;20417;-63
2023/01/29 14:37:54;;;;;;;19.40;11.45;;;;;;;;;;6361410;22;20238;-63
2023/01/29 14:40:23;;;;;;;19.05;11.52;;;;;;;;;;6359704;22;20143;-63
2023/01/29 14:42:49;;;;;;;18.45;12.15;;;;;;;;;;6351204;22;20157;-63
2023/01/29 14:45:25;;;;;;;22.77;12.57;;;;;;;;;;6350192;22;20142;-63
2023/01/29 14:47:53;;;;;;;18.83;12.27;;;;;;;;;;6346400;22;20205;-61
2023/01/29 14:50:28;;;;;;;19.08;13.13;;;;;;;;;;6343587;22;20145;-62
2023/01/29 14:52:58;;;;;;;22.05;12.98;;;;;;;;;;6343183;22;20142;-61
2023/01/29 14:55:30;;;;;;;21.45;13.15;;;;;;;;;;6341988;22;20146;-62
2023/01/29 14:57:57;;;;;;;21.23;13.38;;;;;;;;;;6342301;22;20142;-62
2023/01/29 15:00:31;;;;;;;19.13;13.05;;;;;;;;;;6342010;22;20162;-61
2023/01/29 15:02:57;;;;;;;20.48;13.88;;;;;;;;;;6341665;22;20142;-62
2023/01/29 15:05:27;;;;;;;22.05;13.70;;;;;;;;;;6341914;22;20424;-60
2023/01/29 15:08:12;;;;;;;21.83;13.60;;;;;;;;;;6341840;22;20166;-62